sensor_id;sensor_type;location;lat;lon;timestamp;pressure;altitude;pressure_sealevel;temperature;humidity
59104;BME280;51449;51.676;5.812;2023-04-15T00:00:21;100736.00;;;9.33;54.63
59104;BME280;51449;51.676;5.812;2023-04-15T00:02:43;100737.47;;;9.31;54.59
59104;BME280;51449;51.676;5.812;2023-04-15T00:05:05;100728.28;;;9.27;54.79
59104;BME280;51449;51.676;5.812;2023-04-15T00:07:27;100724.06;;;9.20;54.79
59104;BME280;51449;51.676;5.812;2023-04-15T00:09:49;100728.94;;;9.15;54.78
59104;BME280;51449;51.676;5.812;2023-04-15T00:12:15;100725.53;;;9.09;55.14
59104;BME280;51449;51.676;5.812;2023-04-15T00:14:38;100731.03;;;9.09;55.25
59104;BME280;51449;51.676;5.812;2023-04-15T00:17:00;100732.19;;;9.08;55.00
59104;BME280;51449;51.676;5.812;2023-04-15T00:19:22;100736.06;;;9.07;54.94
59104;BME280;51449;51.676;5.812;2023-04-15T00:21:45;100732.97;;;9.09;54.87
59104;BME280;51449;51.676;5.812;2023-04-15T00:24:06;100735.06;;;9.12;55.23
59104;BME280;51449;51.676;5.812;2023-04-15T00:26:28;100733.97;;;9.13;54.75
59104;BME280;51449;51.676;5.812;2023-04-15T00:28:50;100732.31;;;9.12;55.08
59104;BME280;51449;51.676;5.812;2023-04-15T00:31:12;100727.97;;;9.11;54.84
59104;BME280;51449;51.676;5.812;2023-04-15T00:33:34;100729.28;;;9.05;55.31
59104;BME280;51449;51.676;5.812;2023-04-15T00:35:57;100734.94;;;8.99;55.16
59104;BME280;51449;51.676;5.812;2023-04-15T00:38:19;100725.41;;;8.97;55.42
59104;BME280;51449;51.676;5.812;2023-04-15T00:40:41;100726.38;;;8.92;55.35
59104;BME280;51449;51.676;5.812;2023-04-15T00:43:03;100729.78;;;8.89;55.63
59104;BME280;51449;51.676;5.812;2023-04-15T00:45:26;100732.03;;;8.87;55.84
59104;BME280;51449;51.676;5.812;2023-04-15T00:47:50;100724.75;;;8.83;56.17
59104;BME280;51449;51.676;5.812;2023-04-15T00:50:12;100727.84;;;8.81;56.17
59104;BME280;51449;51.676;5.812;2023-04-15T00:52:34;100724.63;;;8.79;56.47
59104;BME280;51449;51.676;5.812;2023-04-15T00:54:56;100730.78;;;8.76;56.55
59104;BME280;51449;51.676;5.812;2023-04-15T00:57:20;100726.72;;;8.73;56.53
59104;BME280;51449;51.676;5.812;2023-04-15T00:59:42;100725.75;;;8.69;56.45
59104;BME280;51449;51.676;5.812;2023-04-15T01:02:06;100736.25;;;8.67;56.75
59104;BME280;51449;51.676;5.812;2023-04-15T01:04:29;100730.75;;;8.67;56.12
59104;BME280;51449;51.676;5.812;2023-04-15T01:06:51;100735.13;;;8.68;56.73
59104;BME280;51449;51.676;5.812;2023-04-15T01:09:13;100741.44;;;8.69;56.67
59104;BME280;51449;51.676;5.812;2023-04-15T01:11:35;100732.03;;;8.70;56.23
59104;BME280;51449;51.676;5.812;2023-04-15T01:13:58;100735.13;;;8.68;56.11
59104;BME280;51449;51.676;5.812;2023-04-15T01:16:20;100737.41;;;8.66;56.08
59104;BME280;51449;51.676;5.812;2023-04-15T01:18:42;100732.22;;;8.65;56.37
59104;BME280;51449;51.676;5.812;2023-04-15T01:21:05;100731.72;;;8.63;55.89
59104;BME280;51449;51.676;5.812;2023-04-15T01:23:28;100739.47;;;8.61;56.40
59104;BME280;51449;51.676;5.812;2023-04-15T01:25:51;100735.91;;;8.60;56.25
59104;BME280;51449;51.676;5.812;2023-04-15T01:28:14;100742.38;;;8.55;56.51
59104;BME280;51449;51.676;5.812;2023-04-15T01:30:36;100743.03;;;8.52;56.28
59104;BME280;51449;51.676;5.812;2023-04-15T01:32:58;100743.84;;;8.53;56.21
59104;BME280;51449;51.676;5.812;2023-04-15T01:35:21;100740.78;;;8.54;56.49
59104;BME280;51449;51.676;5.812;2023-04-15T01:37:45;100741.44;;;8.51;56.38
59104;BME280;51449;51.676;5.812;2023-04-15T01:40:10;100747.53;;;8.48;57.00
59104;BME280;51449;51.676;5.812;2023-04-15T01:42:35;100738.84;;;8.46;57.03
59104;BME280;51449;51.676;5.812;2023-04-15T01:44:58;100742.84;;;8.40;57.40
59104;BME280;51449;51.676;5.812;2023-04-15T01:47:20;100740.88;;;8.32;58.22
59104;BME280;51449;51.676;5.812;2023-04-15T01:49:42;100744.09;;;8.25;58.58
59104;BME280;51449;51.676;5.812;2023-04-15T01:52:04;100740.84;;;8.23;59.18
59104;BME280;51449;51.676;5.812;2023-04-15T01:54:27;100741.16;;;8.22;59.44
59104;BME280;51449;51.676;5.812;2023-04-15T01:56:48;100734.72;;;8.18;59.15
59104;BME280;51449;51.676;5.812;2023-04-15T01:59:12;100736.47;;;8.13;59.29
59104;BME280;51449;51.676;5.812;2023-04-15T02:01:34;100736.31;;;8.10;59.22
59104;BME280;51449;51.676;5.812;2023-04-15T02:03:56;100742.44;;;8.07;59.77
59104;BME280;51449;51.676;5.812;2023-04-15T02:06:18;100737.59;;;8.04;60.56
59104;BME280;51449;51.676;5.812;2023-04-15T02:08:41;100732.09;;;8.04;61.38
59104;BME280;51449;51.676;5.812;2023-04-15T02:11:03;100732.59;;;8.06;60.78
59104;BME280;51449;51.676;5.812;2023-04-15T02:13:25;100743.56;;;8.06;61.16
59104;BME280;51449;51.676;5.812;2023-04-15T02:15:49;100735.34;;;8.06;60.77
59104;BME280;51449;51.676;5.812;2023-04-15T02:18:15;100738.38;;;8.04;60.75
59104;BME280;51449;51.676;5.812;2023-04-15T02:20:37;100740.03;;;8.05;61.03
59104;BME280;51449;51.676;5.812;2023-04-15T02:23:00;100740.66;;;8.02;61.50
59104;BME280;51449;51.676;5.812;2023-04-15T02:25:22;100735.19;;;8.02;60.71
59104;BME280;51449;51.676;5.812;2023-04-15T02:27:44;100736.47;;;8.05;60.17
59104;BME280;51449;51.676;5.812;2023-04-15T02:30:06;100740.03;;;8.05;60.48
59104;BME280;51449;51.676;5.812;2023-04-15T02:32:28;100746.00;;;8.07;60.39
59104;BME280;51449;51.676;5.812;2023-04-15T02:34:50;100742.91;;;8.09;59.94
59104;BME280;51449;51.676;5.812;2023-04-15T02:37:13;100750.84;;;8.10;59.74
59104;BME280;51449;51.676;5.812;2023-04-15T02:39:35;100759.06;;;8.10;60.00
59104;BME280;51449;51.676;5.812;2023-04-15T02:41:56;100757.13;;;8.11;59.70
59104;BME280;51449;51.676;5.812;2023-04-15T02:44:20;100756.63;;;8.09;59.88
59104;BME280;51449;51.676;5.812;2023-04-15T02:46:45;100759.88;;;8.02;60.28
59104;BME280;51449;51.676;5.812;2023-04-15T02:49:11;100764.38;;;7.98;60.67
59104;BME280;51449;51.676;5.812;2023-04-15T02:51:32;100764.00;;;7.91;61.21
59104;BME280;51449;51.676;5.812;2023-04-15T02:53:54;100768.00;;;7.85;61.08
59104;BME280;51449;51.676;5.812;2023-04-15T02:56:16;100759.94;;;7.80;61.68
59104;BME280;51449;51.676;5.812;2023-04-15T02:58:40;100773.66;;;7.80;61.80
59104;BME280;51449;51.676;5.812;2023-04-15T03:01:03;100774.28;;;7.77;62.24
59104;BME280;51449;51.676;5.812;2023-04-15T03:03:25;100771.19;;;7.69;62.53
59104;BME280;51449;51.676;5.812;2023-04-15T03:05:48;100781.50;;;7.64;62.57
59104;BME280;51449;51.676;5.812;2023-04-15T03:08:11;100784.03;;;7.60;62.94
59104;BME280;51449;51.676;5.812;2023-04-15T03:10:32;100777.25;;;7.58;63.40
59104;BME280;51449;51.676;5.812;2023-04-15T03:12:55;100780.19;;;7.61;63.37
59104;BME280;51449;51.676;5.812;2023-04-15T03:15:17;100778.06;;;7.58;62.78
59104;BME280;51449;51.676;5.812;2023-04-15T03:17:43;100779.19;;;7.57;62.82
59104;BME280;51449;51.676;5.812;2023-04-15T03:20:05;100775.16;;;7.55;63.12
59104;BME280;51449;51.676;5.812;2023-04-15T03:22:28;100782.06;;;7.52;63.20
59104;BME280;51449;51.676;5.812;2023-04-15T03:24:50;100783.19;;;7.51;63.57
59104;BME280;51449;51.676;5.812;2023-04-15T03:27:12;100785.44;;;7.49;64.55
59104;BME280;51449;51.676;5.812;2023-04-15T03:29:35;100781.88;;;7.48;65.03
59104;BME280;51449;51.676;5.812;2023-04-15T03:31:57;100787.47;;;7.43;65.05
59104;BME280;51449;51.676;5.812;2023-04-15T03:34:19;100791.06;;;7.44;64.98
59104;BME280;51449;51.676;5.812;2023-04-15T03:36:41;100796.53;;;7.44;65.23
59104;BME280;51449;51.676;5.812;2023-04-15T03:39:03;100791.06;;;7.44;64.80
59104;BME280;51449;51.676;5.812;2023-04-15T03:41:25;100797.34;;;7.44;64.73
59104;BME280;51449;51.676;5.812;2023-04-15T03:43:47;100793.31;;;7.42;64.72
59104;BME280;51449;51.676;5.812;2023-04-15T03:46:09;100801.03;;;7.40;65.38
59104;BME280;51449;51.676;5.812;2023-04-15T03:48:31;100797.28;;;7.36;65.35
59104;BME280;51449;51.676;5.812;2023-04-15T03:50:52;100803.09;;;7.34;66.05
59104;BME280;51449;51.676;5.812;2023-04-15T03:53:15;100800.66;;;7.33;66.15
59104;BME280;51449;51.676;5.812;2023-04-15T03:55:37;100801.78;;;7.32;66.14
59104;BME280;51449;51.676;5.812;2023-04-15T03:57:58;100807.25;;;7.32;66.14
59104;BME280;51449;51.676;5.812;2023-04-15T04:00:20;100808.88;;;7.33;66.32
59104;BME280;51449;51.676;5.812;2023-04-15T04:02:43;100816.28;;;7.32;65.39
59104;BME280;51449;51.676;5.812;2023-04-15T04:05:07;100821.56;;;7.28;66.49
59104;BME280;51449;51.676;5.812;2023-04-15T04:07:29;100820.78;;;7.28;65.70
59104;BME280;51449;51.676;5.812;2023-04-15T04:09:51;100823.81;;;7.26;66.34
59104;BME280;51449;51.676;5.812;2023-04-15T04:12:13;100827.97;;;7.24;66.75
59104;BME280;51449;51.676;5.812;2023-04-15T04:14:34;100832.78;;;7.18;67.46
59104;BME280;51449;51.676;5.812;2023-04-15T04:16:56;100832.28;;;7.16;67.48
59104;BME280;51449;51.676;5.812;2023-04-15T04:19:18;100835.53;;;7.18;67.53
59104;BME280;51449;51.676;5.812;2023-04-15T04:21:40;100835.03;;;7.16;68.22
59104;BME280;51449;51.676;5.812;2023-04-15T04:24:02;100838.38;;;7.13;68.61
59104;BME280;51449;51.676;5.812;2023-04-15T04:26:24;100848.22;;;7.14;68.40
59104;BME280;51449;51.676;5.812;2023-04-15T04:28:45;100852.88;;;7.14;68.38
59104;BME280;51449;51.676;5.812;2023-04-15T04:31:07;100845.81;;;7.13;68.47
59104;BME280;51449;51.676;5.812;2023-04-15T04:33:29;100859.19;;;7.14;67.77
59104;BME280;51449;51.676;5.812;2023-04-15T04:35:51;100854.31;;;7.11;68.03
59104;BME280;51449;51.676;5.812;2023-04-15T04:38:12;100868.03;;;7.11;68.24
59104;BME280;51449;51.676;5.812;2023-04-15T04:40:34;100862.03;;;7.09;67.99
59104;BME280;51449;51.676;5.812;2023-04-15T04:42:57;100867.34;;;7.05;68.55
59104;BME280;51449;51.676;5.812;2023-04-15T04:45:19;100873.13;;;7.04;68.39
59104;BME280;51449;51.676;5.812;2023-04-15T04:47:41;100877.28;;;7.01;68.74
59104;BME280;51449;51.676;5.812;2023-04-15T04:50:03;100877.28;;;7.01;68.85
59104;BME280;51449;51.676;5.812;2023-04-15T04:52:26;100887.13;;;7.02;69.06
59104;BME280;51449;51.676;5.812;2023-04-15T04:54:47;100879.72;;;7.03;68.51
59104;BME280;51449;51.676;5.812;2023-04-15T04:57:09;100882.25;;;6.99;68.57
59104;BME280;51449;51.676;5.812;2023-04-15T04:59:31;100892.41;;;6.99;68.86
59104;BME280;51449;51.676;5.812;2023-04-15T05:01:53;100892.91;;;7.01;68.54
59104;BME280;51449;51.676;5.812;2023-04-15T05:04:16;100902.44;;;7.03;68.40
59104;BME280;51449;51.676;5.812;2023-04-15T05:06:39;100905.38;;;7.07;68.13
59104;BME280;51449;51.676;5.812;2023-04-15T05:09:02;100900.09;;;7.11;68.12
59104;BME280;51449;51.676;5.812;2023-04-15T05:11:24;100904.25;;;7.08;68.46
59104;BME280;51449;51.676;5.812;2023-04-15T05:13:46;100901.31;;;7.04;68.81
59104;BME280;51449;51.676;5.812;2023-04-15T05:16:09;100915.34;;;7.03;69.11
59104;BME280;51449;51.676;5.812;2023-04-15T05:18:32;100915.63;;;7.01;69.01
59104;BME280;51449;51.676;5.812;2023-04-15T05:20:55;100918.38;;;7.01;69.72
59104;BME280;51449;51.676;5.812;2023-04-15T05:23:18;100926.28;;;7.03;69.47
59104;BME280;51449;51.676;5.812;2023-04-15T05:25:40;100920.19;;;7.06;69.11
59104;BME280;51449;51.676;5.812;2023-04-15T05:28:02;100928.41;;;7.06;69.76
59104;BME280;51449;51.676;5.812;2023-04-15T05:30:24;100931.94;;;7.06;70.34
59104;BME280;51449;51.676;5.812;2023-04-15T05:32:47;100936.84;;;7.10;69.85
59104;BME280;51449;51.676;5.812;2023-04-15T05:35:09;100939.75;;;7.13;70.14
59104;BME280;51449;51.676;5.812;2023-04-15T05:37:31;100941.38;;;7.14;71.15
59104;BME280;51449;51.676;5.812;2023-04-15T05:39:53;100941.25;;;7.19;71.11
59104;BME280;51449;51.676;5.812;2023-04-15T05:42:16;100948.75;;;7.27;71.10
59104;BME280;51449;51.676;5.812;2023-04-15T05:44:38;100947.50;;;7.34;70.77
59104;BME280;51449;51.676;5.812;2023-04-15T05:47:01;100953.91;;;7.43;71.02
59104;BME280;51449;51.676;5.812;2023-04-15T05:49:24;100955.41;;;7.49;71.11
59104;BME280;51449;51.676;5.812;2023-04-15T05:51:47;100953.22;;;7.60;70.80
59104;BME280;51449;51.676;5.812;2023-04-15T05:54:09;100964.75;;;7.70;70.23
59104;BME280;51449;51.676;5.812;2023-04-15T05:56:31;100971.13;;;7.80;70.59
59104;BME280;51449;51.676;5.812;2023-04-15T05:58:54;100970.69;;;7.86;70.65
59104;BME280;51449;51.676;5.812;2023-04-15T06:01:16;100978.50;;;7.93;70.15
59104;BME280;51449;51.676;5.812;2023-04-15T06:03:39;100978.03;;;8.00;70.04
59104;BME280;51449;51.676;5.812;2023-04-15T06:06:01;100985.16;;;8.01;70.17
59104;BME280;51449;51.676;5.812;2023-04-15T06:08:23;100988.72;;;8.01;70.43
59104;BME280;51449;51.676;5.812;2023-04-15T06:10:45;100984.84;;;8.02;70.55
59104;BME280;51449;51.676;5.812;2023-04-15T06:13:07;100992.47;;;8.05;70.43
59104;BME280;51449;51.676;5.812;2023-04-15T06:15:29;100994.28;;;8.10;70.50
59104;BME280;51449;51.676;5.812;2023-04-15T06:17:51;100998.50;;;8.16;70.40
59104;BME280;51449;51.676;5.812;2023-04-15T06:20:13;101009.16;;;8.18;70.58
59104;BME280;51449;51.676;5.812;2023-04-15T06:22:36;101015.16;;;8.20;70.26
59104;BME280;51449;51.676;5.812;2023-04-15T06:24:58;101019.50;;;8.21;70.74
59104;BME280;51449;51.676;5.812;2023-04-15T06:27:20;101019.72;;;8.24;70.20
59104;BME280;51449;51.676;5.812;2023-04-15T06:29:43;101029.72;;;8.29;70.49
59104;BME280;51449;51.676;5.812;2023-04-15T06:32:05;101037.34;;;8.32;70.91
59104;BME280;51449;51.676;5.812;2023-04-15T06:34:27;101034.69;;;8.41;70.50
59104;BME280;51449;51.676;5.812;2023-04-15T06:36:48;101034.53;;;8.46;70.55
59104;BME280;51449;51.676;5.812;2023-04-15T06:39:10;101037.34;;;8.54;70.54
59104;BME280;51449;51.676;5.812;2023-04-15T06:41:32;101043.22;;;8.62;70.60
59104;BME280;51449;51.676;5.812;2023-04-15T06:43:54;101039.38;;;8.71;70.31
59104;BME280;51449;51.676;5.812;2023-04-15T06:46:16;101044.91;;;8.80;70.08
59104;BME280;51449;51.676;5.812;2023-04-15T06:48:38;101047.69;;;8.89;69.90
59104;BME280;51449;51.676;5.812;2023-04-15T06:50:59;101045.81;;;8.98;69.74
59104;BME280;51449;51.676;5.812;2023-04-15T06:53:21;101059.69;;;9.02;69.55
59104;BME280;51449;51.676;5.812;2023-04-15T06:55:43;101064.91;;;9.12;69.76
59104;BME280;51449;51.676;5.812;2023-04-15T06:58:05;101064.28;;;9.15;69.34
59104;BME280;51449;51.676;5.812;2023-04-15T07:00:26;101068.34;;;9.17;69.33
59104;BME280;51449;51.676;5.812;2023-04-15T07:02:49;101071.94;;;9.27;69.29
59104;BME280;51449;51.676;5.812;2023-04-15T07:05:11;101074.03;;;9.30;69.23
59104;BME280;51449;51.676;5.812;2023-04-15T07:07:33;101083.94;;;9.39;69.36
59104;BME280;51449;51.676;5.812;2023-04-15T07:09:55;101087.19;;;9.50;68.72
59104;BME280;51449;51.676;5.812;2023-04-15T07:12:17;101086.41;;;9.58;68.88
59104;BME280;51449;51.676;5.812;2023-04-15T07:14:39;101093.88;;;9.67;69.00
59104;BME280;51449;51.676;5.812;2023-04-15T07:17:00;101095.50;;;9.76;68.93
59104;BME280;51449;51.676;5.812;2023-04-15T07:19:23;101101.97;;;9.72;68.91
59104;BME280;51449;51.676;5.812;2023-04-15T07:21:46;101106.34;;;9.81;68.69
59104;BME280;51449;51.676;5.812;2023-04-15T07:24:07;101109.09;;;9.81;68.74
59104;BME280;51449;51.676;5.812;2023-04-15T07:26:30;101116.72;;;9.84;68.89
59104;BME280;51449;51.676;5.812;2023-04-15T07:28:52;101116.41;;;9.86;68.74
59104;BME280;51449;51.676;5.812;2023-04-15T07:31:14;101125.31;;;9.83;68.07
59104;BME280;51449;51.676;5.812;2023-04-15T07:33:37;101126.59;;;9.85;67.92
59104;BME280;51449;51.676;5.812;2023-04-15T07:35:58;101125.44;;;9.86;67.98
59104;BME280;51449;51.676;5.812;2023-04-15T07:38:20;101136.31;;;9.92;67.28
59104;BME280;51449;51.676;5.812;2023-04-15T07:40:42;101132.44;;;9.93;67.24
59104;BME280;51449;51.676;5.812;2023-04-15T07:43:04;101135.66;;;9.95;66.96
59104;BME280;51449;51.676;5.812;2023-04-15T07:45:26;101133.88;;;9.99;67.43
59104;BME280;51449;51.676;5.812;2023-04-15T07:47:48;101142.00;;;10.04;67.26
59104;BME280;51449;51.676;5.812;2023-04-15T07:50:11;101145.22;;;10.06;67.14
59104;BME280;51449;51.676;5.812;2023-04-15T07:52:32;101148.00;;;10.06;67.34
59104;BME280;51449;51.676;5.812;2023-04-15T07:54:59;101146.84;;;10.07;67.35
59104;BME280;51449;51.676;5.812;2023-04-15T07:57:21;101154.63;;;10.05;67.32
59104;BME280;51449;51.676;5.812;2023-04-15T07:59:42;101162.25;;;10.08;67.37
59104;BME280;51449;51.676;5.812;2023-04-15T08:02:04;101159.31;;;10.04;67.31
59104;BME280;51449;51.676;5.812;2023-04-15T08:04:26;101164.69;;;10.10;67.33
59104;BME280;51449;51.676;5.812;2023-04-15T08:06:48;101163.84;;;10.09;67.06
59104;BME280;51449;51.676;5.812;2023-04-15T08:09:10;101168.09;;;10.15;66.85
59104;BME280;51449;51.676;5.812;2023-04-15T08:11:32;101164.38;;;10.20;66.68
59104;BME280;51449;51.676;5.812;2023-04-15T08:13:54;101168.63;;;10.35;66.75
59104;BME280;51449;51.676;5.812;2023-04-15T08:16:20;101172.16;;;10.35;65.69
59104;BME280;51449;51.676;5.812;2023-04-15T08:18:45;101168.47;;;10.48;65.23
59104;BME280;51449;51.676;5.812;2023-04-15T08:21:07;101173.47;;;10.64;64.89
59104;BME280;51449;51.676;5.812;2023-04-15T08:23:30;101175.41;;;10.81;64.86
59104;BME280;51449;51.676;5.812;2023-04-15T08:25:53;101183.13;;;10.96;63.75
59104;BME280;51449;51.676;5.812;2023-04-15T08:28:14;101173.41;;;11.07;63.47
59104;BME280;51449;51.676;5.812;2023-04-15T08:30:37;101188.75;;;11.26;63.51
59104;BME280;51449;51.676;5.812;2023-04-15T08:32:59;101172.59;;;11.45;63.43
59104;BME280;51449;51.676;5.812;2023-04-15T08:35:21;101179.09;;;11.49;61.99
59104;BME280;51449;51.676;5.812;2023-04-15T08:37:42;101192.19;;;11.61;61.39
59104;BME280;51449;51.676;5.812;2023-04-15T08:40:04;101181.16;;;11.61;60.95
59104;BME280;51449;51.676;5.812;2023-04-15T08:42:30;101187.38;;;11.79;61.32
59104;BME280;51449;51.676;5.812;2023-04-15T08:44:58;101194.66;;;11.84;60.68
59104;BME280;51449;51.676;5.812;2023-04-15T08:47:25;101190.13;;;11.88;59.87
59104;BME280;51449;51.676;5.812;2023-04-15T08:49:53;101205.69;;;11.92;60.07
59104;BME280;51449;51.676;5.812;2023-04-15T08:52:16;101207.72;;;12.04;60.15
59104;BME280;51449;51.676;5.812;2023-04-15T08:54:38;101210.91;;;12.15;59.65
59104;BME280;51449;51.676;5.812;2023-04-15T08:57:00;101208.91;;;12.24;59.32
59104;BME280;51449;51.676;5.812;2023-04-15T08:59:23;101214.03;;;12.34;58.30
59104;BME280;51449;51.676;5.812;2023-04-15T09:01:44;101225.56;;;12.36;57.26
59104;BME280;51449;51.676;5.812;2023-04-15T09:04:07;101212.41;;;12.33;57.52
59104;BME280;51449;51.676;5.812;2023-04-15T09:06:29;101216.59;;;12.39;57.71
59104;BME280;51449;51.676;5.812;2023-04-15T09:08:51;101218.84;;;12.46;57.57
59104;BME280;51449;51.676;5.812;2023-04-15T09:11:13;101218.75;;;12.55;57.69
59104;BME280;51449;51.676;5.812;2023-04-15T09:13:35;101225.22;;;12.59;57.07
59104;BME280;51449;51.676;5.812;2023-04-15T09:15:57;101236.41;;;12.62;56.76
59104;BME280;51449;51.676;5.812;2023-04-15T09:18:29;101245.31;;;12.68;57.56
59104;BME280;51449;51.676;5.812;2023-04-15T09:20:52;101243.28;;;12.77;56.34
59104;BME280;51449;51.676;5.812;2023-04-15T09:23:14;101237.09;;;12.80;55.40
59104;BME280;51449;51.676;5.812;2023-04-15T09:25:39;101252.84;;;12.80;55.83
59104;BME280;51449;51.676;5.812;2023-04-15T09:28:03;101254.47;;;12.81;56.08
59104;BME280;51449;51.676;5.812;2023-04-15T09:30:26;101253.69;;;12.80;55.66
59104;BME280;51449;51.676;5.812;2023-04-15T09:35:14;101258.16;;;13.06;55.37
59104;BME280;51449;51.676;5.812;2023-04-15T09:37:36;101261.66;;;13.15;53.80
59104;BME280;51449;51.676;5.812;2023-04-15T09:39:58;101264.41;;;13.15;53.97
59104;BME280;51449;51.676;5.812;2023-04-15T09:42:19;101272.50;;;13.20;53.64
59104;BME280;51449;51.676;5.812;2023-04-15T09:44:45;101262.53;;;13.28;52.87
59104;BME280;51449;51.676;5.812;2023-04-15T09:47:06;101273.75;;;13.32;53.50
59104;BME280;51449;51.676;5.812;2023-04-15T09:49:28;101263.25;;;13.37;54.06
59104;BME280;51449;51.676;5.812;2023-04-15T09:51:50;101263.34;;;13.41;53.11
59104;BME280;51449;51.676;5.812;2023-04-15T09:54:33;101276.78;;;13.51;52.11
59104;BME280;51449;51.676;5.812;2023-04-15T09:57:04;101265.72;;;13.51;52.13
59104;BME280;51449;51.676;5.812;2023-04-15T09:59:26;101274.72;;;13.60;51.53
59104;BME280;51449;51.676;5.812;2023-04-15T10:01:48;101267.56;;;13.59;52.16
59104;BME280;51449;51.676;5.812;2023-04-15T10:04:11;101266.75;;;13.59;52.73
59104;BME280;51449;51.676;5.812;2023-04-15T10:06:33;101275.19;;;13.75;52.62
59104;BME280;51449;51.676;5.812;2023-04-15T10:08:57;101277.63;;;13.88;52.12
59104;BME280;51449;51.676;5.812;2023-04-15T10:11:19;101284.44;;;13.91;50.88
59104;BME280;51449;51.676;5.812;2023-04-15T10:13:45;101281.22;;;13.89;51.55
59104;BME280;51449;51.676;5.812;2023-04-15T10:16:10;101279.13;;;13.86;51.34
59104;BME280;51449;51.676;5.812;2023-04-15T10:18:37;101281.91;;;13.86;51.78
59104;BME280;51449;51.676;5.812;2023-04-15T10:21:04;101287.22;;;14.03;51.95
59104;BME280;51449;51.676;5.812;2023-04-15T10:23:26;101292.75;;;14.16;51.31
59104;BME280;51449;51.676;5.812;2023-04-15T10:25:51;101290.78;;;14.28;49.97
59104;BME280;51449;51.676;5.812;2023-04-15T10:28:15;101283.66;;;14.27;49.63
59104;BME280;51449;51.676;5.812;2023-04-15T10:30:37;101296.69;;;14.27;49.88
59104;BME280;51449;51.676;5.812;2023-04-15T10:33:03;101294.41;;;14.29;50.16
59104;BME280;51449;51.676;5.812;2023-04-15T10:35:28;101285.13;;;14.37;50.59
59104;BME280;51449;51.676;5.812;2023-04-15T10:37:51;101300.72;;;14.42;49.20
59104;BME280;51449;51.676;5.812;2023-04-15T10:42:55;101297.03;;;14.25;49.91
59104;BME280;51449;51.676;5.812;2023-04-15T10:45:17;101296.34;;;14.28;51.06
59104;BME280;51449;51.676;5.812;2023-04-15T10:47:42;101294.47;;;14.45;51.16
59104;BME280;51449;51.676;5.812;2023-04-15T10:50:04;101299.94;;;14.53;50.56
59104;BME280;51449;51.676;5.812;2023-04-15T10:52:27;101306.50;;;14.49;51.01
59104;BME280;51449;51.676;5.812;2023-04-15T10:55:01;101305.31;;;14.50;50.98
59104;BME280;51449;51.676;5.812;2023-04-15T10:57:37;101306.38;;;14.58;49.90
59104;BME280;51449;51.676;5.812;2023-04-15T11:00:09;101316.22;;;14.55;50.13
59104;BME280;51449;51.676;5.812;2023-04-15T11:05:14;101315.59;;;14.74;49.53
59104;BME280;51449;51.676;5.812;2023-04-15T11:12:35;101320.38;;;14.61;49.23
59104;BME280;51449;51.676;5.812;2023-04-15T11:14:57;101331.72;;;14.56;49.32
59104;BME280;51449;51.676;5.812;2023-04-15T11:17:26;101334.81;;;14.54;49.46
59104;BME280;51449;51.676;5.812;2023-04-15T11:19:49;101327.66;;;14.53;47.75
59104;BME280;51449;51.676;5.812;2023-04-15T11:22:11;101330.88;;;14.55;48.49
59104;BME280;51449;51.676;5.812;2023-04-15T11:24:33;101323.25;;;14.65;48.78
59104;BME280;51449;51.676;5.812;2023-04-15T11:26:58;101329.94;;;14.76;49.25
59104;BME280;51449;51.676;5.812;2023-04-15T11:29:28;101327.00;;;14.85;49.06
59104;BME280;51449;51.676;5.812;2023-04-15T11:31:51;101335.31;;;14.97;49.39
59104;BME280;51449;51.676;5.812;2023-04-15T11:34:21;101338.16;;;15.13;48.90
59104;BME280;51449;51.676;5.812;2023-04-15T11:36:43;101318.00;;;15.16;47.32
59104;BME280;51449;51.676;5.812;2023-04-15T11:39:06;101334.53;;;15.25;47.31
59104;BME280;51449;51.676;5.812;2023-04-15T11:41:27;101332.09;;;15.23;47.53
59104;BME280;51449;51.676;5.812;2023-04-15T11:43:50;101331.38;;;15.26;48.13
59104;BME280;51449;51.676;5.812;2023-04-15T11:46:12;101338.69;;;15.18;48.38
59104;BME280;51449;51.676;5.812;2023-04-15T11:48:35;101327.25;;;15.20;48.77
59104;BME280;51449;51.676;5.812;2023-04-15T11:51:02;101339.47;;;15.31;48.84
59104;BME280;51449;51.676;5.812;2023-04-15T11:53:55;101339.38;;;15.56;47.58
59104;BME280;51449;51.676;5.812;2023-04-15T11:56:19;101342.50;;;15.54;47.27
59104;BME280;51449;51.676;5.812;2023-04-15T11:58:42;101330.31;;;15.59;47.42
59104;BME280;51449;51.676;5.812;2023-04-15T12:01:05;101336.03;;;15.78;47.07
59104;BME280;51449;51.676;5.812;2023-04-15T12:03:47;101329.66;;;15.78;46.31
59104;BME280;51449;51.676;5.812;2023-04-15T12:06:18;101342.38;;;15.79;45.99
59104;BME280;51449;51.676;5.812;2023-04-15T12:11:17;101350.97;;;15.90;44.84
59104;BME280;51449;51.676;5.812;2023-04-15T12:13:44;101352.50;;;15.71;45.07
59104;BME280;51449;51.676;5.812;2023-04-15T12:16:07;101357.84;;;15.64;45.14
59104;BME280;51449;51.676;5.812;2023-04-15T12:18:29;101357.34;;;15.74;45.58
59104;BME280;51449;51.676;5.812;2023-04-15T12:20:51;101347.91;;;15.63;45.74
59104;BME280;51449;51.676;5.812;2023-04-15T12:23:12;101354.06;;;15.56;46.47
59104;BME280;51449;51.676;5.812;2023-04-15T12:25:40;101362.59;;;15.63;45.33
59104;BME280;51449;51.676;5.812;2023-04-15T12:28:09;101368.00;;;15.72;45.62
59104;BME280;51449;51.676;5.812;2023-04-15T12:30:32;101359.31;;;15.74;45.03
59104;BME280;51449;51.676;5.812;2023-04-15T12:32:54;101378.16;;;15.80;44.93
59104;BME280;51449;51.676;5.812;2023-04-15T12:35:17;101372.22;;;15.82;44.90
59104;BME280;51449;51.676;5.812;2023-04-15T12:37:41;101390.53;;;15.83;45.37
59104;BME280;51449;51.676;5.812;2023-04-15T12:40:07;101388.81;;;15.78;46.03
59104;BME280;51449;51.676;5.812;2023-04-15T12:42:29;101378.78;;;15.90;45.70
59104;BME280;51449;51.676;5.812;2023-04-15T12:44:50;101385.63;;;16.08;45.11
59104;BME280;51449;51.676;5.812;2023-04-15T12:47:12;101376.94;;;16.10;44.35